createdAt,value
2023-02-23T00:01:33.072Z,41.60
2023-02-23T00:05:36.407Z,41.83
2023-02-23T00:09:50.213Z,40.93
2023-02-23T00:13:53.080Z,42.83
2023-02-23T00:17:55.704Z,36.23
2023-02-23T00:21:58.124Z,39.77
2023-02-23T00:25:59.095Z,35.27
2023-02-23T00:30:00.248Z,35.60
2023-02-23T00:34:02.803Z,33.67
2023-02-23T00:38:03.911Z,32.67
2023-02-23T00:42:06.065Z,34.03
2023-02-23T00:46:07.271Z,35.13
2023-02-23T00:50:12.367Z,33.70
2023-02-23T00:54:15.575Z,34.03
2023-02-23T00:58:16.776Z,33.57
2023-02-23T01:02:17.884Z,37.03
2023-02-23T01:06:19.410Z,33.00
2023-02-23T01:10:20.568Z,37.53
2023-02-23T01:14:22.382Z,36.10
2023-02-23T01:18:23.781Z,37.00
2023-02-23T01:22:24.906Z,33.00
2023-02-23T01:26:28.765Z,34.93
2023-02-23T01:30:30.077Z,36.60
2023-02-23T01:34:31.139Z,32.30
2023-02-23T01:38:32.184Z,31.67
2023-02-23T01:42:39.103Z,32.13
2023-02-23T01:46:45.798Z,36.37
2023-02-23T01:50:50.741Z,30.63
2023-02-23T01:54:54.427Z,34.67
2023-02-23T01:58:58.325Z,40.63
2023-02-23T02:03:02.473Z,31.50
2023-02-23T02:07:04.189Z,31.80
2023-02-23T02:11:07.062Z,30.83
2023-02-23T02:15:11.542Z,29.23
2023-02-23T02:19:25.537Z,30.20
2023-02-23T02:23:42.506Z,36.93
2023-02-23T02:28:21.740Z,38.10
2023-02-23T02:32:32.648Z,33.13
2023-02-23T02:36:49.583Z,40.93
2023-02-23T02:40:54.365Z,40.23
2023-02-23T02:45:17.366Z,44.83
2023-02-23T02:49:26.103Z,41.83
2023-02-23T02:53:37.151Z,44.93
2023-02-23T02:57:39.839Z,47.83
2023-02-23T03:01:59.218Z,40.20
2023-02-23T03:06:18.506Z,35.10
2023-02-23T03:10:53.837Z,38.23
2023-02-23T03:15:40.321Z,43.03
2023-02-23T03:20:15.551Z,44.67
2023-02-23T03:24:45.085Z,45.67
2023-02-23T03:29:08.491Z,42.20
2023-02-23T03:33:37.605Z,38.83
2023-02-23T03:38:17.793Z,50.13
2023-02-23T03:42:40.602Z,45.43
2023-02-23T03:47:02.529Z,44.07
2023-02-23T03:51:25.446Z,47.90
2023-02-23T03:55:48.300Z,49.57
2023-02-23T04:00:17.788Z,54.93
2023-02-23T04:04:39.712Z,47.53
2023-02-23T04:08:59.637Z,42.80
2023-02-23T04:13:19.681Z,48.20
2023-02-23T04:17:23.331Z,46.63
2023-02-23T04:21:24.533Z,46.63
2023-02-23T04:25:26.257Z,41.83
2023-02-23T04:29:28.117Z,42.47
2023-02-23T04:33:29.259Z,44.33
2023-02-23T04:37:30.371Z,41.13
2023-02-23T04:41:31.373Z,46.00
2023-02-23T04:45:33.000Z,39.67
2023-02-23T04:49:34.249Z,42.80
2023-02-23T04:53:35.261Z,43.83
2023-02-23T04:57:36.264Z,39.73
2023-02-23T05:01:37.463Z,33.47
2023-02-23T05:05:38.989Z,38.97
2023-02-23T05:09:41.333Z,40.23
2023-02-23T05:13:42.444Z,36.23
2023-02-23T05:17:43.592Z,39.20
2023-02-23T05:21:44.804Z,38.70
2023-02-23T05:25:46.064Z,38.97
2023-02-23T05:29:47.080Z,36.37
2023-02-23T05:33:48.431Z,41.70
2023-02-23T05:37:49.418Z,36.10
2023-02-23T05:41:50.548Z,43.10
2023-02-23T05:45:51.751Z,47.47
2023-02-23T05:49:52.938Z,43.70
2023-02-23T05:53:54.059Z,54.13
2023-02-23T05:57:55.180Z,42.50
2023-02-23T06:01:56.231Z,49.57
2023-02-23T06:05:58.545Z,52.07
2023-02-23T06:10:02.727Z,53.23
2023-02-23T06:14:03.695Z,49.73
2023-02-23T06:18:05.234Z,44.00
2023-02-23T06:22:06.203Z,43.67
2023-02-23T06:26:07.847Z,46.90
2023-02-23T06:30:10.696Z,52.47
2023-02-23T06:34:11.838Z,52.67
2023-02-23T06:38:13.018Z,50.23
2023-02-23T06:42:14.879Z,48.43
2023-02-23T06:46:15.867Z,50.00
2023-02-23T06:50:17.564Z,52.97
2023-02-23T06:54:18.946Z,55.37
2023-02-23T06:58:19.899Z,51.50
2023-02-23T07:02:20.916Z,51.70
2023-02-23T07:06:21.968Z,51.83
2023-02-23T07:10:22.977Z,59.37
2023-02-23T07:14:26.898Z,62.20
2023-02-23T07:18:27.175Z,63.80
2023-02-23T07:22:29.575Z,52.93
2023-02-23T07:26:34.190Z,54.90
2023-02-23T07:30:35.176Z,51.17
2023-02-23T07:34:37.291Z,61.37
2023-02-23T07:38:38.410Z,51.93
2023-02-23T07:42:39.449Z,58.83
2023-02-23T07:46:41.410Z,59.53
2023-02-23T07:50:42.619Z,49.90
2023-02-23T07:54:43.840Z,55.00
2023-02-23T07:58:45.011Z,55.57
2023-02-23T08:02:46.343Z,58.50
2023-02-23T08:06:47.605Z,47.40
2023-02-23T08:10:50.023Z,49.73
2023-02-23T08:14:52.227Z,43.73
2023-02-23T08:18:53.812Z,46.63
2023-02-23T08:22:55.342Z,42.33
2023-02-23T08:26:58.352Z,45.50
2023-02-23T08:30:59.748Z,39.43
2023-02-23T08:35:02.433Z,40.83
2023-02-23T08:39:05.506Z,41.73
2023-02-23T08:43:06.660Z,36.20
2023-02-23T08:47:07.715Z,38.90
2023-02-23T08:51:09.237Z,36.73
2023-02-23T08:55:11.396Z,36.53
2023-02-23T08:59:13.817Z,33.97
2023-02-23T09:03:15.008Z,36.23
2023-02-23T09:07:17.143Z,39.77
2023-02-23T09:11:18.501Z,35.93
2023-02-23T09:15:20.200Z,37.10
2023-02-23T09:19:21.438Z,38.30
2023-02-23T09:23:23.702Z,37.00
2023-02-23T09:27:25.008Z,35.00
2023-02-23T09:31:26.949Z,35.70
2023-02-23T09:35:28.035Z,32.60
2023-02-23T09:39:37.707Z,28.53
2023-02-23T09:43:42.065Z,28.57
2023-02-23T09:48:01.432Z,26.00
2023-02-23T09:52:04.409Z,25.83
2023-02-23T09:56:19.547Z,25.67
2023-02-23T10:00:27.218Z,25.63
2023-02-23T10:04:38.286Z,22.90
2023-02-23T10:08:49.269Z,23.13
2023-02-23T10:13:00.185Z,16.30
2023-02-23T10:17:22.666Z,15.90
2023-02-23T10:21:41.717Z,17.00
2023-02-23T10:25:48.988Z,14.23
2023-02-23T10:29:54.347Z,14.00
2023-02-23T10:33:59.206Z,13.50
2023-02-23T10:38:01.861Z,14.77
2023-02-23T10:42:06.116Z,13.57
2023-02-23T10:46:11.149Z,12.97
2023-02-23T10:50:13.657Z,13.30
2023-02-23T10:54:35.145Z,11.03
2023-02-23T10:58:45.938Z,12.27
2023-02-23T11:02:47.709Z,10.93
2023-02-23T11:06:50.218Z,10.33
2023-02-23T11:10:57.617Z,10.77
2023-02-23T11:14:58.887Z,10.67
2023-02-23T11:19:04.391Z,11.17
2023-02-23T11:23:27.212Z,8.47
2023-02-23T11:27:28.562Z,13.70
2023-02-23T11:31:34.043Z,7.47
2023-02-23T11:35:36.198Z,8.80
2023-02-23T11:39:39.132Z,8.30
2023-02-23T11:43:44.143Z,8.83
2023-02-23T11:47:49.544Z,10.33
2023-02-23T11:51:53.316Z,13.17
2023-02-23T11:55:57.283Z,12.47
2023-02-23T12:00:00.950Z,16.90
2023-02-23T12:04:02.500Z,17.77
2023-02-23T12:08:10.533Z,16.00
2023-02-23T12:16:41.218Z,18.63
2023-02-23T12:20:47.881Z,19.30
2023-02-23T12:24:55.566Z,19.97
2023-02-23T12:29:18.416Z,21.40
2023-02-23T12:33:28.175Z,19.23
2023-02-23T12:37:35.074Z,20.03
2023-02-23T12:41:45.992Z,19.50
2023-02-23T12:45:56.914Z,18.90
2023-02-23T12:50:03.576Z,18.07
2023-02-23T12:54:05.384Z,18.13
2023-02-23T12:58:22.185Z,17.90
2023-02-23T13:02:42.260Z,19.07
2023-02-23T13:06:59.053Z,20.47
2023-02-23T13:11:06.972Z,20.80
2023-02-23T13:15:21.075Z,21.40
2023-02-23T13:19:43.957Z,21.23
2023-02-23T13:24:01.033Z,21.43
2023-02-23T13:28:02.984Z,23.57
2023-02-23T13:32:07.281Z,23.70
2023-02-23T13:36:09.098Z,24.03
2023-02-23T13:40:26.042Z,25.87
2023-02-23T13:44:31.262Z,24.67
2023-02-23T13:48:59.900Z,26.73
2023-02-23T13:53:04.537Z,28.03
2023-02-23T13:57:16.232Z,47.90
2023-02-23T14:01:23.934Z,25.60
2023-02-23T14:05:31.989Z,24.03
2023-02-23T14:09:40.245Z,26.10
2023-02-23T14:13:45.395Z,25.37
2023-02-23T14:17:58.782Z,24.10
2023-02-23T14:22:08.698Z,26.33
2023-02-23T14:26:14.619Z,23.30
2023-02-23T14:30:19.942Z,26.40
2023-02-23T14:34:24.090Z,25.50
2023-02-23T14:38:47.034Z,26.53
2023-02-23T14:42:38.053Z,26.00
2023-02-23T14:46:49.549Z,26.80
2023-02-23T14:50:51.031Z,27.33
2023-02-23T14:54:54.796Z,25.60
2023-02-23T14:58:58.015Z,23.43
2023-02-23T15:03:04.868Z,24.57
2023-02-23T15:07:08.790Z,20.97
2023-02-23T15:11:12.905Z,21.17
2023-02-23T15:15:20.337Z,20.83
2023-02-23T15:19:23.402Z,20.77
2023-02-23T15:23:24.540Z,20.17
2023-02-23T15:27:34.236Z,22.47
2023-02-23T15:31:36.057Z,21.30
2023-02-23T15:35:44.889Z,18.90
2023-02-23T15:39:52.720Z,21.00
2023-02-23T15:43:56.596Z,23.27
2023-02-23T15:48:01.615Z,20.97
2023-02-23T15:52:13.829Z,20.20
2023-02-23T15:56:24.460Z,22.53
2023-02-23T16:00:35.285Z,21.60
2023-02-23T16:04:40.605Z,20.17
2023-02-23T16:08:56.996Z,20.07
2023-02-23T16:13:00.160Z,20.57
2023-02-23T16:17:10.850Z,20.77
2023-02-23T16:21:06.249Z,23.83
2023-02-23T16:25:11.140Z,25.13
2023-02-23T16:29:22.992Z,27.47
2023-02-23T16:33:42.846Z,28.60
2023-02-23T16:37:59.879Z,25.50
2023-02-23T16:42:01.079Z,27.70
2023-02-23T16:46:02.392Z,30.37
2023-02-23T16:50:19.780Z,32.50
2023-02-23T16:54:18.120Z,34.80
2023-02-23T16:58:24.075Z,36.17
2023-02-23T17:02:25.326Z,35.13
2023-02-23T17:06:26.826Z,44.13
2023-02-23T17:10:31.727Z,45.90
2023-02-23T17:14:32.900Z,46.08
2023-02-23T17:18:36.149Z,47.33
2023-02-23T17:22:37.348Z,55.27
2023-02-23T17:26:39.297Z,45.07
2023-02-23T17:30:42.099Z,44.40
2023-02-23T17:34:43.211Z,46.43
2023-02-23T17:38:44.838Z,48.40
2023-02-23T17:42:45.911Z,77.70
2023-02-23T17:46:47.048Z,44.00
2023-02-23T17:50:48.603Z,39.67
2023-02-23T17:54:49.804Z,40.20
2023-02-23T17:58:50.937Z,42.77
2023-02-23T18:02:52.227Z,41.40
2023-02-23T18:06:53.722Z,35.70
2023-02-23T18:11:16.779Z,37.53
2023-02-23T18:15:19.922Z,40.03
2023-02-23T18:19:20.948Z,38.97
2023-02-23T18:23:24.794Z,38.43
2023-02-23T18:27:25.931Z,39.63
2023-02-23T18:31:27.786Z,35.13
2023-02-23T18:35:38.227Z,38.13
2023-02-23T18:39:39.221Z,33.00
2023-02-23T18:43:40.297Z,34.77
2023-02-23T18:47:42.282Z,35.93
2023-02-23T18:51:43.735Z,37.00
2023-02-23T18:55:45.473Z,35.85
2023-02-23T18:59:46.838Z,32.07
2023-02-23T19:03:51.113Z,36.27
2023-02-23T19:07:52.275Z,48.97
2023-02-23T19:11:54.173Z,41.57
2023-02-23T19:15:57.547Z,36.57
2023-02-23T19:20:00.128Z,38.53
2023-02-23T19:24:02.409Z,40.70
2023-02-23T19:28:03.829Z,43.23
2023-02-23T19:32:05.281Z,46.10
2023-02-23T19:36:08.839Z,40.00
2023-02-23T19:40:11.284Z,38.97
2023-02-23T19:44:12.644Z,37.27
2023-02-23T19:48:15.359Z,41.17
2023-02-23T19:52:16.391Z,43.80
2023-02-23T19:56:17.830Z,43.03
2023-02-23T20:00:20.268Z,40.50
2023-02-23T20:04:21.425Z,40.97
2023-02-23T20:08:23.875Z,42.73
2023-02-23T20:12:24.993Z,46.00
2023-02-23T20:16:28.237Z,41.70
2023-02-23T20:20:31.080Z,49.37
2023-02-23T20:24:32.117Z,53.37
2023-02-23T20:28:33.299Z,54.67
2023-02-23T20:32:34.476Z,49.17
2023-02-23T20:36:36.641Z,47.20
2023-02-23T20:40:38.052Z,47.60
2023-02-23T20:44:39.371Z,44.97
2023-02-23T20:48:41.285Z,43.13
2023-02-23T20:52:43.826Z,48.83
2023-02-23T20:56:45.203Z,43.98
2023-02-23T21:00:46.305Z,45.47
2023-02-23T21:04:47.462Z,47.17
2023-02-23T21:08:52.712Z,51.13
2023-02-23T21:12:53.875Z,50.73
2023-02-23T21:16:54.893Z,48.87
2023-02-23T21:20:58.209Z,52.43
2023-02-23T21:25:00.242Z,52.80
2023-02-23T21:29:01.814Z,47.50
2023-02-23T21:33:03.182Z,54.10
2023-02-23T21:37:04.220Z,48.77
2023-02-23T21:41:07.691Z,49.10
2023-02-23T21:45:11.685Z,51.37
2023-02-23T21:49:12.903Z,46.87
2023-02-23T21:53:13.782Z,45.40
2023-02-23T21:57:15.008Z,45.13
2023-02-23T22:01:22.488Z,51.27
2023-02-23T22:05:23.802Z,50.77
2023-02-23T22:09:24.782Z,45.97
2023-02-23T22:13:25.778Z,50.87
2023-02-23T22:17:26.921Z,48.57
2023-02-23T22:21:28.730Z,55.70
2023-02-23T22:25:29.832Z,49.90
2023-02-23T22:29:30.868Z,56.10
2023-02-23T22:33:32.409Z,46.20
2023-02-23T22:37:33.438Z,49.30
2023-02-23T22:41:37.685Z,53.93
2023-02-23T22:45:40.560Z,47.53
2023-02-23T22:49:41.669Z,49.90
2023-02-23T22:53:43.236Z,45.40
2023-02-23T22:57:46.810Z,46.90
2023-02-23T23:01:49.729Z,42.67
2023-02-23T23:05:51.098Z,46.20
2023-02-23T23:09:52.623Z,44.37
2023-02-23T23:13:59.114Z,45.73
2023-02-23T23:18:01.959Z,45.30
2023-02-23T23:22:03.182Z,40.30
2023-02-23T23:26:05.970Z,43.33
2023-02-23T23:30:10.562Z,40.50
2023-02-23T23:34:12.773Z,41.60
2023-02-23T23:38:13.886Z,41.63
2023-02-23T23:42:14.846Z,49.27
2023-02-23T23:46:21.126Z,45.07
2023-02-23T23:50:24.145Z,41.07
2023-02-23T23:54:29.009Z,46.20
2023-02-23T23:58:30.787Z,46.47
